createdAt,value
2023-06-27T00:00:13.632Z,4.47
2023-06-27T00:03:01.327Z,4.28
2023-06-27T00:05:29.119Z,4.68
2023-06-27T00:07:56.700Z,4.60
2023-06-27T00:10:24.166Z,4.55
2023-06-27T00:12:54.023Z,5.55
2023-06-27T00:15:21.369Z,5.20
2023-06-27T00:17:49.082Z,5.43
2023-06-27T00:20:16.497Z,5.28
2023-06-27T00:22:44.083Z,4.60
2023-06-27T00:25:11.430Z,5.38
2023-06-27T00:27:39.190Z,4.75
2023-06-27T00:30:06.948Z,4.55
2023-06-27T00:32:34.737Z,4.80
2023-06-27T00:35:02.141Z,4.65
2023-06-27T00:37:29.809Z,5.53
2023-06-27T00:39:57.131Z,5.05
2023-06-27T00:42:25.024Z,5.15
2023-06-27T00:44:52.365Z,5.25
2023-06-27T00:47:20.052Z,5.10
2023-06-27T00:49:47.388Z,5.60
2023-06-27T00:52:14.996Z,5.45
2023-06-27T00:54:42.309Z,6.28
2023-06-27T00:57:09.939Z,5.72
2023-06-27T00:59:38.895Z,5.47
2023-06-27T01:02:06.653Z,5.30
2023-06-27T01:04:33.978Z,5.53
2023-06-27T01:07:06.089Z,6.00
2023-06-27T01:09:37.631Z,6.57
2023-06-27T01:12:10.919Z,5.75
2023-06-27T01:14:38.905Z,5.78
2023-06-27T01:17:07.002Z,5.60
2023-06-27T01:19:34.548Z,5.50
2023-06-27T01:22:04.808Z,5.93
2023-06-27T01:24:32.730Z,6.57
2023-06-27T01:27:01.702Z,6.43
2023-06-27T01:29:30.365Z,6.10
2023-06-27T01:32:04.096Z,7.43
2023-06-27T01:34:54.961Z,7.07
2023-06-27T01:37:27.408Z,6.50
2023-06-27T01:40:03.979Z,7.80
2023-06-27T01:42:35.026Z,6.85
2023-06-27T01:45:03.769Z,7.13
2023-06-27T01:47:31.758Z,6.40
2023-06-27T01:49:59.100Z,6.88
2023-06-27T01:52:27.037Z,7.53
2023-06-27T01:54:54.437Z,6.38
2023-06-27T01:57:22.127Z,6.60
2023-06-27T01:59:49.741Z,7.57
2023-06-27T02:02:17.398Z,7.95
2023-06-27T02:04:44.834Z,7.35
2023-06-27T02:07:12.483Z,8.13
2023-06-27T02:09:39.958Z,7.60
2023-06-27T02:12:07.908Z,7.93
2023-06-27T02:14:35.301Z,8.50
2023-06-27T02:17:02.983Z,7.07
2023-06-27T02:19:30.351Z,7.80
2023-06-27T02:21:58.569Z,4.22
2023-06-27T02:24:25.991Z,2.38
2023-06-27T02:26:53.641Z,2.00
2023-06-27T02:29:21.025Z,2.13
2023-06-27T02:31:48.726Z,2.33
2023-06-27T02:34:16.093Z,2.70
2023-06-27T02:36:44.002Z,2.70
2023-06-27T02:39:11.378Z,2.17
2023-06-27T02:41:38.987Z,2.88
2023-06-27T02:44:06.435Z,2.47
2023-06-27T02:46:34.176Z,2.80
2023-06-27T02:49:01.575Z,2.85
2023-06-27T02:51:29.185Z,2.50
2023-06-27T02:53:57.606Z,2.60
2023-06-27T02:56:25.311Z,2.50
2023-06-27T02:58:52.883Z,3.25
2023-06-27T03:01:20.558Z,2.42
2023-06-27T03:03:48.247Z,2.83
2023-06-27T03:06:16.587Z,2.80
2023-06-27T03:08:45.444Z,2.78
2023-06-27T03:11:13.121Z,2.70
2023-06-27T03:13:40.507Z,3.03
2023-06-27T03:16:08.252Z,3.47
2023-06-27T03:18:35.576Z,3.90
2023-06-27T03:21:03.580Z,2.65
2023-06-27T03:23:30.878Z,3.63
2023-06-27T03:25:59.750Z,3.10
2023-06-27T03:28:27.087Z,3.22
2023-06-27T03:30:54.880Z,3.33
2023-06-27T03:33:22.237Z,3.13
2023-06-27T03:35:49.861Z,3.50
2023-06-27T03:38:17.243Z,3.15
2023-06-27T03:40:44.887Z,2.90
2023-06-27T03:43:15.971Z,2.63
2023-06-27T03:45:43.805Z,3.00
2023-06-27T03:48:11.158Z,3.13
2023-06-27T03:50:38.760Z,3.10
2023-06-27T03:53:07.243Z,2.90
2023-06-27T03:55:34.652Z,2.55
2023-06-27T03:58:02.774Z,2.60
2023-06-27T04:00:30.631Z,2.53
2023-06-27T04:02:58.685Z,3.20
2023-06-27T04:05:27.396Z,2.65
2023-06-27T04:07:55.008Z,3.13
2023-06-27T04:10:22.370Z,3.33
2023-06-27T04:12:49.998Z,3.17
2023-06-27T04:15:17.374Z,3.13
2023-06-27T04:17:46.766Z,3.55
2023-06-27T04:20:14.193Z,3.47
2023-06-27T04:22:41.788Z,3.92
2023-06-27T04:25:11.934Z,3.45
2023-06-27T04:27:39.635Z,3.70
2023-06-27T04:30:08.446Z,4.38
2023-06-27T04:32:38.385Z,5.53
2023-06-27T04:35:06.242Z,3.70
2023-06-27T04:37:34.960Z,4.32
2023-06-27T04:40:02.317Z,4.40
2023-06-27T04:42:29.995Z,4.22
2023-06-27T04:44:57.405Z,4.40
2023-06-27T04:47:25.058Z,4.50
2023-06-27T04:49:52.717Z,3.60
2023-06-27T04:52:20.527Z,3.45
2023-06-27T04:54:50.309Z,4.53
2023-06-27T04:57:20.356Z,3.80
2023-06-27T04:59:47.903Z,4.40
2023-06-27T05:02:15.564Z,3.10
2023-06-27T05:04:42.989Z,3.83
2023-06-27T05:07:10.740Z,2.90
2023-06-27T05:09:38.089Z,3.50
2023-06-27T05:12:05.772Z,3.80
2023-06-27T05:14:33.108Z,3.97
2023-06-27T05:17:00.761Z,4.55
2023-06-27T05:19:28.154Z,3.55
2023-06-27T05:21:55.795Z,3.58
2023-06-27T05:24:23.192Z,3.50
2023-06-27T05:26:50.825Z,4.25
2023-06-27T05:29:18.228Z,3.33
2023-06-27T05:31:46.116Z,3.90
2023-06-27T05:34:13.527Z,3.67
2023-06-27T05:36:41.148Z,3.63
2023-06-27T05:39:08.535Z,2.40
2023-06-27T05:41:36.347Z,3.60
2023-06-27T05:44:03.719Z,3.42
2023-06-27T05:46:35.882Z,3.38
2023-06-27T05:49:03.759Z,3.17
2023-06-27T05:51:31.479Z,2.50
2023-06-27T05:53:58.827Z,3.25
2023-06-27T05:56:26.437Z,3.58
2023-06-27T05:58:53.745Z,3.20
2023-06-27T06:01:21.442Z,2.70
2023-06-27T06:03:49.461Z,2.83
2023-06-27T06:06:17.145Z,3.00
2023-06-27T06:08:44.447Z,3.47
2023-06-27T06:11:12.057Z,3.50
2023-06-27T06:13:39.416Z,3.22
2023-06-27T06:16:07.013Z,3.47
2023-06-27T06:18:34.401Z,2.97
2023-06-27T06:21:02.049Z,3.00
2023-06-27T06:23:29.460Z,2.85
2023-06-27T06:25:57.102Z,2.58
2023-06-27T06:28:24.582Z,3.33
2023-06-27T06:30:52.349Z,2.85
2023-06-27T06:33:19.812Z,3.13
2023-06-27T06:35:47.527Z,2.00
2023-06-27T06:38:14.826Z,2.80
2023-06-27T06:40:42.449Z,4.05
2023-06-27T06:43:09.799Z,3.72
2023-06-27T06:45:37.406Z,2.63
2023-06-27T06:48:04.928Z,3.55
2023-06-27T06:50:33.198Z,1.67
2023-06-27T06:53:00.634Z,1.92
2023-06-27T06:55:28.370Z,2.35
2023-06-27T06:57:55.871Z,2.50
2023-06-27T07:00:23.526Z,2.70
2023-06-27T07:02:50.998Z,2.72
2023-06-27T07:05:20.629Z,1.80
2023-06-27T07:07:48.925Z,1.92
2023-06-27T07:10:16.555Z,2.60
2023-06-27T07:12:43.961Z,1.98
2023-06-27T07:15:11.692Z,2.47
2023-06-27T07:17:39.065Z,1.83
2023-06-27T07:20:07.169Z,2.55
2023-06-27T07:22:34.511Z,2.50
2023-06-27T07:25:02.247Z,2.00
2023-06-27T07:27:29.776Z,2.38
2023-06-27T07:29:57.356Z,2.05
2023-06-27T07:32:24.949Z,1.38
2023-06-27T07:34:52.586Z,1.80
2023-06-27T07:37:20.462Z,2.80
2023-06-27T07:39:48.077Z,2.22
2023-06-27T07:42:17.496Z,1.92
2023-06-27T07:44:45.620Z,2.03
2023-06-27T07:47:12.981Z,1.92
2023-06-27T07:49:40.614Z,1.92
2023-06-27T07:52:08.836Z,2.10
2023-06-27T07:54:36.900Z,1.52
2023-06-27T07:57:04.669Z,3.47
2023-06-27T07:59:32.328Z,1.75
2023-06-27T08:02:00.059Z,1.83
2023-06-27T08:04:28.230Z,1.45
2023-06-27T08:06:55.682Z,2.25
2023-06-27T08:09:23.373Z,4.88
2023-06-27T08:11:51.433Z,4.68
2023-06-27T08:14:19.382Z,2.63
2023-06-27T08:16:46.893Z,2.28
2023-06-27T08:19:14.654Z,1.83
2023-06-27T08:21:41.990Z,1.45
2023-06-27T08:24:09.622Z,2.95
2023-06-27T08:26:37.000Z,2.28
2023-06-27T08:29:04.773Z,1.85
2023-06-27T08:31:32.248Z,1.90
2023-06-27T08:33:59.857Z,1.77
2023-06-27T08:36:27.225Z,1.17
2023-06-27T08:38:54.819Z,1.70
2023-06-27T08:41:22.283Z,1.98
2023-06-27T08:43:50.015Z,2.00
2023-06-27T08:46:19.215Z,2.97
2023-06-27T08:48:47.708Z,2.15
2023-06-27T08:51:16.698Z,1.52
2023-06-27T08:53:45.541Z,1.70
2023-06-27T08:56:15.007Z,1.60
2023-06-27T08:58:47.248Z,1.50
2023-06-27T09:01:14.738Z,1.52
2023-06-27T09:03:42.664Z,1.73
2023-06-27T09:06:10.165Z,1.88
2023-06-27T09:08:38.203Z,2.22
2023-06-27T09:11:10.246Z,2.00
2023-06-27T09:13:38.705Z,1.85
2023-06-27T09:16:07.113Z,1.42
2023-06-27T09:18:35.953Z,1.58
2023-06-27T09:21:03.718Z,1.55
2023-06-27T09:23:32.534Z,1.30
2023-06-27T09:26:10.316Z,2.25
2023-06-27T09:28:48.038Z,1.65
2023-06-27T09:31:15.865Z,1.30
2023-06-27T09:33:47.146Z,1.92
2023-06-27T09:39:05.184Z,1.77
2023-06-27T09:41:43.145Z,1.98
2023-06-27T09:44:14.565Z,1.80
2023-06-27T09:46:43.110Z,1.58
2023-06-27T09:49:11.012Z,2.60
2023-06-27T09:51:38.855Z,1.63
2023-06-27T09:54:06.742Z,1.80
2023-06-27T09:56:34.786Z,2.08
2023-06-27T10:01:42.876Z,2.03
2023-06-27T10:04:13.827Z,1.50
2023-06-27T10:06:43.274Z,1.30
2023-06-27T10:09:11.000Z,1.90
2023-06-27T10:11:38.586Z,1.60
2023-06-27T10:14:06.387Z,1.80
2023-06-27T10:16:34.026Z,2.17
2023-06-27T10:19:02.035Z,1.95
2023-06-27T10:21:30.848Z,2.35
2023-06-27T10:24:00.260Z,2.10
2023-06-27T10:26:28.107Z,2.22
2023-06-27T10:28:56.033Z,1.95
2023-06-27T10:31:40.626Z,1.90
2023-06-27T10:34:08.323Z,2.33
2023-06-27T10:36:54.406Z,1.83
2023-06-27T10:39:32.619Z,2.50
2023-06-27T10:42:07.078Z,1.80
2023-06-27T10:45:00.930Z,1.67
2023-06-27T10:50:02.822Z,1.63
2023-06-27T10:52:30.229Z,1.58
2023-06-27T10:55:16.353Z,1.50
2023-06-27T10:57:49.832Z,1.90
2023-06-27T11:00:17.637Z,1.90
2023-06-27T11:02:46.724Z,1.83
2023-06-27T11:05:18.163Z,1.77
2023-06-27T11:07:54.842Z,2.15
2023-06-27T11:10:24.160Z,2.40
2023-06-27T11:13:11.670Z,2.72
2023-06-27T11:15:40.985Z,3.08
2023-06-27T11:18:08.518Z,2.50
2023-06-27T11:20:37.657Z,2.63
2023-06-27T11:23:05.177Z,2.50
2023-06-27T11:25:43.922Z,2.72
2023-06-27T11:28:16.886Z,3.70
2023-06-27T11:33:15.376Z,2.53
2023-06-27T11:35:43.070Z,2.72
2023-06-27T11:38:12.095Z,2.80
2023-06-27T11:40:48.279Z,2.72
2023-06-27T11:43:16.717Z,1.75
2023-06-27T11:45:51.622Z,2.10
2023-06-27T11:48:19.529Z,2.17
2023-06-27T11:51:08.023Z,2.10
2023-06-27T11:53:36.809Z,2.72
2023-06-27T11:58:39.979Z,2.22
2023-06-27T12:01:15.117Z,2.10
2023-06-27T12:03:47.944Z,2.90
2023-06-27T12:06:33.954Z,2.40
2023-06-27T12:09:01.293Z,2.22
2023-06-27T12:11:37.274Z,3.63
2023-06-27T12:14:05.595Z,4.05
2023-06-27T12:16:35.368Z,3.25
2023-06-27T12:19:06.927Z,2.83
2023-06-27T12:21:34.675Z,3.33
2023-06-27T12:24:02.202Z,2.70
2023-06-27T12:26:29.842Z,3.38
2023-06-27T12:29:04.267Z,3.42
2023-06-27T12:31:32.277Z,2.97
2023-06-27T12:34:00.753Z,2.95
2023-06-27T12:36:29.050Z,3.40
2023-06-27T12:38:56.899Z,3.67
2023-06-27T12:41:26.257Z,3.13
2023-06-27T12:43:53.831Z,3.55
2023-06-27T12:46:22.509Z,3.85
2023-06-27T12:48:49.947Z,3.85
2023-06-27T12:51:20.532Z,3.65
2023-06-27T12:53:49.379Z,3.65
2023-06-27T12:56:17.819Z,3.83
2023-06-27T12:58:47.637Z,4.35
2023-06-27T13:01:18.118Z,4.80
2023-06-27T13:03:46.100Z,3.75
2023-06-27T13:06:13.965Z,3.08
2023-06-27T13:08:41.331Z,4.13
2023-06-27T13:11:08.980Z,3.55
2023-06-27T13:13:37.619Z,4.40
2023-06-27T13:18:35.789Z,3.90
2023-06-27T13:21:04.100Z,3.88
2023-06-27T13:23:31.533Z,4.25
2023-06-27T13:25:59.157Z,4.15
2023-06-27T13:28:28.210Z,3.50
2023-06-27T13:30:56.231Z,3.83
2023-06-27T13:33:25.186Z,3.92
2023-06-27T13:35:53.168Z,3.30
2023-06-27T13:38:20.566Z,3.47
2023-06-27T13:40:48.293Z,4.45
2023-06-27T13:43:15.734Z,3.20
2023-06-27T13:45:43.375Z,3.22
2023-06-27T13:48:11.075Z,3.05
2023-06-27T13:50:38.933Z,3.25
2023-06-27T13:53:06.669Z,3.20
2023-06-27T13:55:35.125Z,2.97
2023-06-27T13:58:02.686Z,2.90
2023-06-27T14:00:30.497Z,2.72
2023-06-27T14:02:58.173Z,2.80
2023-06-27T14:05:26.137Z,3.00
2023-06-27T14:07:53.677Z,3.17
2023-06-27T14:10:22.603Z,3.28
2023-06-27T14:12:49.995Z,2.85
2023-06-27T14:15:17.610Z,3.10
2023-06-27T14:17:45.061Z,3.00
2023-06-27T14:20:13.010Z,3.88
2023-06-27T14:22:40.352Z,3.70
2023-06-27T14:25:08.643Z,3.10
2023-06-27T14:27:37.314Z,3.28
2023-06-27T14:30:05.603Z,3.55
2023-06-27T14:32:34.943Z,3.28
2023-06-27T14:35:02.628Z,4.47
2023-06-27T14:37:30.126Z,2.42
2023-06-27T14:39:57.827Z,2.70
2023-06-27T14:42:25.199Z,3.15
2023-06-27T14:44:52.869Z,3.08
2023-06-27T14:47:20.249Z,2.95
2023-06-27T14:49:47.905Z,2.83
2023-06-27T14:52:15.328Z,3.15
2023-06-27T14:54:43.003Z,2.72
2023-06-27T14:57:10.373Z,2.47
2023-06-27T14:59:37.975Z,3.55
2023-06-27T15:02:05.485Z,2.22
2023-06-27T15:04:33.194Z,2.08
2023-06-27T15:07:00.626Z,2.97
2023-06-27T15:09:28.381Z,2.30
2023-06-27T15:11:55.747Z,2.47
2023-06-27T15:14:23.780Z,2.05
2023-06-27T15:16:51.142Z,2.25
2023-06-27T15:19:18.833Z,2.28
2023-06-27T15:21:46.249Z,2.70
2023-06-27T15:24:13.944Z,2.10
2023-06-27T15:26:41.337Z,1.98
2023-06-27T15:29:08.997Z,4.13
2023-06-27T15:31:36.480Z,2.60
2023-06-27T15:34:04.231Z,2.22
2023-06-27T15:36:32.908Z,1.83
2023-06-27T15:39:00.672Z,1.83
2023-06-27T15:41:28.030Z,2.10
2023-06-27T15:43:55.787Z,2.08
2023-06-27T15:46:23.193Z,2.25
2023-06-27T15:48:50.848Z,2.42
2023-06-27T15:51:18.271Z,1.95
2023-06-27T15:53:45.942Z,2.28
2023-06-27T15:56:13.358Z,2.53
2023-06-27T15:58:41.039Z,2.17
2023-06-27T16:01:08.406Z,2.13
2023-06-27T16:03:36.329Z,2.30
2023-06-27T16:06:03.894Z,2.55
2023-06-27T16:08:31.520Z,2.00
2023-06-27T16:10:58.991Z,2.70
2023-06-27T16:13:26.694Z,2.13
2023-06-27T16:15:54.075Z,2.05
2023-06-27T16:18:22.987Z,2.38
2023-06-27T16:20:51.432Z,2.05
2023-06-27T16:23:19.181Z,1.95
2023-06-27T16:25:46.560Z,2.30
2023-06-27T16:28:16.418Z,1.90
2023-06-27T16:30:44.804Z,2.50
2023-06-27T16:33:12.781Z,2.22
2023-06-27T16:35:40.109Z,2.13
2023-06-27T16:38:07.880Z,2.97
2023-06-27T16:40:37.036Z,2.22
2023-06-27T16:43:04.791Z,2.75
2023-06-27T16:45:32.901Z,2.00
2023-06-27T16:48:01.396Z,2.92
2023-06-27T16:50:28.842Z,2.05
2023-06-27T16:52:56.604Z,2.00
2023-06-27T16:55:24.159Z,2.33
2023-06-27T16:57:51.975Z,2.63
2023-06-27T17:00:19.505Z,2.10
2023-06-27T17:02:49.209Z,1.90
2023-06-27T17:05:16.954Z,2.80
2023-06-27T17:07:46.173Z,2.42
2023-06-27T17:10:13.769Z,3.50
2023-06-27T17:12:41.507Z,3.33
2023-06-27T17:15:09.133Z,2.35
2023-06-27T17:17:37.042Z,2.50
2023-06-27T17:20:04.559Z,2.40
2023-06-27T17:22:32.794Z,1.92
2023-06-27T17:25:00.232Z,2.10
2023-06-27T17:27:28.005Z,2.70
2023-06-27T17:29:55.411Z,2.33
2023-06-27T17:32:23.706Z,2.80
2023-06-27T17:34:51.137Z,2.30
2023-06-27T17:37:18.897Z,2.25
2023-06-27T17:39:46.272Z,2.80
2023-06-27T17:42:14.227Z,1.95
2023-06-27T17:44:41.698Z,3.10
2023-06-27T17:47:12.498Z,2.15
2023-06-27T17:49:40.433Z,2.80
2023-06-27T17:52:08.257Z,2.45
2023-06-27T17:54:35.664Z,2.42
2023-06-27T17:57:03.664Z,2.13
2023-06-27T17:59:31.151Z,2.50
2023-06-27T18:01:59.162Z,2.25
2023-06-27T18:04:26.666Z,2.63
2023-06-27T18:06:54.324Z,2.53
2023-06-27T18:09:21.711Z,2.20
2023-06-27T18:11:49.536Z,2.17
2023-06-27T18:14:16.952Z,1.90
2023-06-27T18:16:44.857Z,2.40
2023-06-27T18:19:12.727Z,2.65
2023-06-27T18:21:40.618Z,2.90
2023-06-27T18:24:08.067Z,3.90
2023-06-27T18:26:35.766Z,5.70
2023-06-27T18:29:03.236Z,5.75
2023-06-27T18:31:30.932Z,8.90
2023-06-27T18:34:02.604Z,8.57
2023-06-27T18:36:31.022Z,9.13
2023-06-27T18:39:01.001Z,5.47
2023-06-27T18:41:29.581Z,6.15
2023-06-27T18:43:56.983Z,10.18
2023-06-27T18:46:24.340Z,9.20
2023-06-27T18:48:51.996Z,19.33
2023-06-27T18:51:19.629Z,4.70
2023-06-27T18:53:47.016Z,3.42
2023-06-27T18:56:15.248Z,3.17
2023-06-27T18:58:42.673Z,3.80
2023-06-27T19:01:10.422Z,3.13
2023-06-27T19:03:38.400Z,3.53
2023-06-27T19:06:06.549Z,3.20
2023-06-27T19:08:33.998Z,3.47
2023-06-27T19:11:01.657Z,2.80
2023-06-27T19:13:29.026Z,2.53
2023-06-27T19:15:56.714Z,2.28
2023-06-27T19:18:24.541Z,2.80
2023-06-27T19:20:52.721Z,3.20
2023-06-27T19:23:20.715Z,2.53
2023-06-27T19:25:48.409Z,2.53
2023-06-27T19:28:15.784Z,3.15
2023-06-27T19:30:43.740Z,3.45
2023-06-27T19:33:11.353Z,3.10
2023-06-27T19:35:39.125Z,2.90
2023-06-27T19:38:06.605Z,2.63
2023-06-27T19:40:36.022Z,2.50
2023-06-27T19:43:03.932Z,2.83
2023-06-27T19:45:32.057Z,2.20
2023-06-27T19:48:00.293Z,2.20
2023-06-27T19:50:29.156Z,1.67
2023-06-27T19:52:56.569Z,1.92
2023-06-27T19:55:25.196Z,2.10
2023-06-27T19:57:55.519Z,2.40
2023-06-27T20:00:23.150Z,2.08
2023-06-27T20:02:50.560Z,2.10
2023-06-27T20:05:18.274Z,2.38
2023-06-27T20:07:45.672Z,1.88
2023-06-27T20:10:14.489Z,1.80
2023-06-27T20:12:42.310Z,1.80
2023-06-27T20:15:10.440Z,1.80
2023-06-27T20:17:37.892Z,2.50
2023-06-27T20:20:06.957Z,2.03
2023-06-27T20:22:37.514Z,2.47
2023-06-27T20:25:05.283Z,2.15
2023-06-27T20:27:32.736Z,2.08
2023-06-27T20:30:00.452Z,1.95
2023-06-27T20:32:28.024Z,2.00
2023-06-27T20:34:55.691Z,1.90
2023-06-27T20:37:23.245Z,1.88
2023-06-27T20:39:51.139Z,2.50
2023-06-27T20:42:18.508Z,3.20
2023-06-27T20:44:46.828Z,2.47
2023-06-27T20:47:14.617Z,2.30
2023-06-27T20:49:42.328Z,2.50
2023-06-27T20:52:09.637Z,2.47
2023-06-27T20:54:38.833Z,1.90
2023-06-27T20:57:06.693Z,2.20
2023-06-27T20:59:34.350Z,1.92
2023-06-27T21:02:01.768Z,1.63
2023-06-27T21:04:29.747Z,1.80
2023-06-27T21:06:57.115Z,1.52
2023-06-27T21:09:25.365Z,1.80
2023-06-27T21:11:52.807Z,2.47
2023-06-27T21:14:20.525Z,1.92
2023-06-27T21:16:47.980Z,1.98
2023-06-27T21:19:15.626Z,1.90
2023-06-27T21:21:43.011Z,1.95
2023-06-27T21:24:10.689Z,1.73
2023-06-27T21:26:38.041Z,2.15
2023-06-27T21:29:05.710Z,2.30
2023-06-27T21:31:33.120Z,1.88
2023-06-27T21:34:00.781Z,2.00
2023-06-27T21:36:28.140Z,2.40
2023-06-27T21:38:55.874Z,2.20
2023-06-27T21:41:23.205Z,2.00
2023-06-27T21:43:50.881Z,2.00
2023-06-27T21:46:18.252Z,1.90
2023-06-27T21:48:45.935Z,2.15
2023-06-27T21:51:13.405Z,1.92
2023-06-27T21:53:41.144Z,1.75
2023-06-27T21:56:08.530Z,2.15
2023-06-27T21:58:36.247Z,3.10
2023-06-27T22:01:03.585Z,1.98
2023-06-27T22:03:36.402Z,2.17
2023-06-27T22:06:04.036Z,1.90
2023-06-27T22:08:31.887Z,2.42
2023-06-27T22:10:59.645Z,2.72
2023-06-27T22:13:27.481Z,2.00
2023-06-27T22:15:55.118Z,1.83
2023-06-27T22:18:23.205Z,1.52
2023-06-27T22:20:50.578Z,1.90
2023-06-27T22:23:18.242Z,2.60
2023-06-27T22:25:45.587Z,2.70
2023-06-27T22:28:13.246Z,2.45
2023-06-27T22:30:41.110Z,2.42
2023-06-27T22:33:09.175Z,1.90
2023-06-27T22:35:36.617Z,2.03
2023-06-27T22:38:04.324Z,1.85
2023-06-27T22:40:31.697Z,2.85
2023-06-27T22:43:01.892Z,2.00
2023-06-27T22:45:29.675Z,1.77
2023-06-27T22:47:57.358Z,2.50
2023-06-27T22:50:24.743Z,2.30
2023-06-27T22:52:55.248Z,2.08
2023-06-27T22:55:22.772Z,1.90
2023-06-27T22:57:50.640Z,2.42
2023-06-27T23:00:18.244Z,1.50
2023-06-27T23:02:46.378Z,1.73
2023-06-27T23:05:13.823Z,1.60
2023-06-27T23:07:41.460Z,2.17
2023-06-27T23:10:09.005Z,2.00
2023-06-27T23:12:36.755Z,1.63
2023-06-27T23:15:04.252Z,2.33
2023-06-27T23:17:34.670Z,2.17
2023-06-27T23:20:05.861Z,1.90
2023-06-27T23:22:35.212Z,1.50
2023-06-27T23:25:05.849Z,1.67
2023-06-27T23:27:41.595Z,2.13
2023-06-27T23:30:09.563Z,2.20
2023-06-27T23:32:39.924Z,1.70
2023-06-27T23:35:07.635Z,1.67
2023-06-27T23:37:35.360Z,2.20
2023-06-27T23:40:05.060Z,2.13
2023-06-27T23:42:32.732Z,2.00
2023-06-27T23:45:00.301Z,1.80
2023-06-27T23:47:28.006Z,1.92
2023-06-27T23:49:55.875Z,2.08
2023-06-27T23:52:24.526Z,1.77
2023-06-27T23:54:51.895Z,1.77
2023-06-27T23:57:19.580Z,2.28
2023-06-27T23:59:46.968Z,2.13
